createdAt,value
2023-03-06T00:29:05.531Z,87.48
2023-03-06T00:59:05.806Z,87.56
2023-03-06T01:29:05.686Z,87.68
2023-03-06T01:59:05.503Z,88.04
2023-03-06T02:29:05.779Z,89.29
2023-03-06T02:59:05.656Z,88.04
2023-03-06T03:29:05.539Z,86.12
2023-03-06T03:59:05.566Z,89.19
2023-03-06T04:29:05.323Z,89.96
2023-03-06T04:59:05.849Z,89.06
2023-03-06T05:29:05.423Z,90.99
2023-03-06T06:29:05.536Z,91.61
2023-03-06T06:29:05.904Z,91.26
2023-03-06T06:59:15.926Z,90.73
2023-03-06T07:29:05.321Z,91.6
2023-03-06T07:59:07.672Z,87.25
2023-03-06T08:29:05.403Z,83.72
2023-03-06T08:59:05.304Z,76.72
2023-03-06T09:29:05.529Z,65.92
2023-03-06T09:59:05.406Z,55.66
2023-03-06T10:29:05.280Z,52.65
2023-03-06T10:59:05.494Z,50.89
2023-03-06T11:29:06.947Z,43.52
2023-03-06T11:59:05.249Z,38.71
2023-03-06T12:29:04.952Z,39.87
2023-03-06T12:59:04.824Z,37.86
2023-03-06T13:29:04.944Z,34.92
2023-03-06T13:59:04.954Z,31.35
2023-03-06T14:29:04.718Z,33.14
2023-03-06T15:29:09.171Z,36.01
2023-03-06T15:59:04.712Z,38.8
2023-03-06T16:29:04.417Z,39.75
2023-03-06T16:59:04.665Z,42.74
2023-03-06T17:29:06.640Z,45.16
2023-03-06T17:59:04.555Z,46.8
2023-03-06T18:59:04.694Z,49.13
2023-03-06T19:29:04.251Z,55.44
2023-03-06T19:59:04.466Z,58.78
2023-03-06T20:29:03.825Z,59.24
2023-03-06T20:59:04.066Z,60.96
2023-03-06T21:29:04.195Z,64.9
2023-03-06T21:59:04.126Z,66.46
2023-03-06T22:29:03.905Z,69.5
2023-03-06T22:59:03.994Z,70.07
2023-03-06T23:29:03.620Z,73.06
2023-03-06T23:59:03.973Z,73.04
